Saint Joseph, Michigan
Current Conditions -  °F | °C
As of 11:53 PM on Thursday 27 Nov 2014 (Local Time) from KBEH Reporting Station
Overcast Overcast  
Wind Chill: 24°   Ceiling: 3600
Heat Index: 24°   Visibility: 10mi
Dew Point: 12°   Wind: 0mph
Humidity: 60%   Direction: NA
Pressure: 30.35"   Gusts: NA
Location:  42.11°N, 86.48°W
Report Text: KBEH 280453Z AUTO 00000KT 10SM OVC036 M04/M11 A3035 RMK AO2 SLP286 T10441111 410061044
Loading
Personal Weather Stations






























Interactive Weather Map New forecast layout! Learn more

10-Day Weather Forecast

Advertisements
Track Severe Weather on mobile